Blaine, Washington
Current Conditions -  °F | °C
As of 3:53 AM on Thursday 27 Nov 2014 (Local Time) from KBLI Reporting Station
Overcast Overcast  
Wind Chill: 54°   Ceiling: 3100
Heat Index: 54°   Visibility: 10mi
Dew Point: 48°   Wind: 21mph
Humidity: 80%   Direction: 150°SSE
Pressure: 29.79"   Gusts: 30mph
Location:  48.99°N, 122.74°W
Report Text: KBLI 271153Z AUTO 15018G26KT 10SM OVC031 12/09 A2979 RMK AO2 PK WND 15026/1152 RAE47 SLP094 P0001 60011 70015 T01220089 10144 20117 58001
Loading
Personal Weather Stations






























Interactive Weather Map New forecast layout! Learn more

10-Day Weather Forecast

Advertisements
Track Severe Weather on mobile